createdAt,value
2023-04-11T08:33:28.253Z,17.4938
2023-04-11T08:34:23.187Z,18.2542
2023-04-11T08:35:26.056Z,18.7988
2023-04-11T08:36:28.329Z,19.1856
2023-04-11T08:37:31.042Z,19.4489
2023-04-11T08:38:34.510Z,19.6399
2023-04-11T08:39:36.114Z,19.7839
2023-04-11T08:40:38.647Z,19.9054
2023-04-11T08:41:41.285Z,19.9972
2023-04-11T08:42:43.967Z,20.0648
2023-04-11T08:43:47.196Z,20.1171
2023-04-11T08:44:49.009Z,20.1554
2023-04-11T08:45:51.603Z,20.1906
2023-04-11T08:46:54.210Z,20.2198
2023-04-11T08:47:56.854Z,20.2495
2023-04-11T08:48:59.425Z,20.2739
2023-04-11T08:50:02.102Z,20.2948
2023-04-11T08:51:04.790Z,20.3026
2023-04-11T08:52:07.111Z,20.3119
2023-04-11T08:53:09.667Z,20.3210
2023-04-11T08:54:17.212Z,20.3463
2023-04-11T08:55:14.833Z,20.3731
2023-04-11T08:56:17.427Z,20.4116
2023-04-11T08:57:20.161Z,20.4632
2023-04-11T08:58:22.807Z,20.5040
2023-04-11T08:59:25.222Z,20.5316
2023-04-11T09:00:27.891Z,20.5519
2023-04-11T09:01:30.432Z,20.5707
2023-04-11T09:02:33.054Z,20.5840
2023-04-11T09:03:35.834Z,20.5948
2023-04-11T09:04:38.830Z,20.6107
2023-04-11T09:05:40.771Z,20.6251
2023-04-11T09:06:43.325Z,20.6377
2023-04-11T09:07:46.001Z,20.6551
2023-04-11T09:08:49.270Z,20.6660
2023-04-11T09:09:51.126Z,20.6695
2023-04-11T09:10:53.675Z,20.6778
2023-04-11T09:11:56.357Z,20.6867
2023-04-11T09:12:58.845Z,20.6880
2023-04-11T09:14:01.388Z,20.6940
2023-04-11T09:15:04.775Z,20.7041
2023-04-11T09:16:09.504Z,20.7121
2023-04-11T09:17:10.126Z,20.7391
2023-04-11T09:18:11.936Z,20.7577
2023-04-11T09:19:14.334Z,20.7519
2023-04-11T09:20:16.964Z,20.7360
2023-04-11T09:21:19.476Z,20.6720
2023-04-11T09:22:24.794Z,20.6192
2023-04-11T09:23:27.155Z,20.5778
2023-04-11T09:24:27.272Z,20.5408
2023-04-11T09:25:30.052Z,20.5133
2023-04-11T09:26:32.497Z,20.4945
2023-04-11T09:27:34.960Z,20.4832
2023-04-11T09:28:40.291Z,20.4703
2023-04-11T09:29:40.818Z,20.4607
2023-04-11T09:30:43.026Z,20.4530
2023-04-11T09:31:45.640Z,20.4471
2023-04-11T09:32:47.980Z,20.4387
2023-04-11T09:33:51.399Z,20.4378
2023-04-11T09:34:54.515Z,20.4317
2023-04-11T09:36:04.329Z,20.4536
2023-04-11T09:36:58.781Z,20.4817
2023-04-11T09:38:01.071Z,20.5032
2023-04-11T09:39:03.421Z,20.5186
2023-04-11T09:40:05.972Z,20.5196
2023-04-11T09:41:10.476Z,20.5141
2023-04-11T09:42:11.210Z,20.5109
2023-04-11T09:43:13.765Z,20.5091
2023-04-11T09:44:16.442Z,20.5081
2023-04-11T09:45:18.901Z,20.5083
2023-04-11T09:46:21.598Z,20.5118
2023-04-11T09:47:24.267Z,20.5065
2023-04-11T09:48:39.560Z,20.5061
2023-04-11T09:49:30.932Z,20.4986
2023-04-11T09:50:31.857Z,20.5268
2023-04-11T09:51:36.654Z,20.5667
2023-04-11T09:52:37.073Z,20.5977
2023-04-11T09:53:39.673Z,20.3970
2023-04-11T09:54:42.222Z,19.9061
2023-04-11T09:55:44.808Z,19.6072
2023-04-11T09:56:47.291Z,19.7969
2023-04-11T09:57:49.886Z,20.0146
2023-04-11T09:58:52.456Z,20.1844
2023-04-11T09:59:55.044Z,20.3140
2023-04-11T10:00:57.609Z,20.4149
2023-04-11T10:02:00.324Z,20.4863
2023-04-11T10:03:03.066Z,20.5402
2023-04-11T10:04:05.329Z,20.5872
2023-04-11T10:05:07.969Z,20.6153
2023-04-11T10:06:10.814Z,20.6319
2023-04-11T10:07:13.057Z,20.6398
2023-04-11T10:08:15.713Z,20.6446
2023-04-11T10:09:18.322Z,20.6465
2023-04-11T10:10:20.838Z,20.6595
2023-04-11T10:11:24.319Z,20.6419
2023-04-11T10:12:26.016Z,20.6282
2023-04-11T10:13:28.685Z,20.6167
2023-04-11T10:14:31.204Z,20.6072
2023-04-11T10:15:33.758Z,20.6042
2023-04-11T10:16:36.440Z,20.5962
2023-04-11T10:17:38.908Z,20.5930
2023-04-11T10:18:41.515Z,20.5960
2023-04-11T10:19:44.089Z,20.5963
2023-04-11T10:20:46.732Z,20.5959
2023-04-11T10:21:49.328Z,20.5967
2023-04-11T10:22:51.886Z,20.5972
2023-04-11T10:23:54.638Z,20.5964
2023-04-11T10:24:57.058Z,20.5983
2023-04-11T10:25:59.640Z,20.5965
2023-04-11T10:27:02.870Z,20.5957
2023-04-11T10:28:04.835Z,20.5923
2023-04-11T10:29:07.366Z,20.5825
2023-04-11T10:30:09.976Z,20.5879
2023-04-11T10:31:12.597Z,20.5917
2023-04-11T10:32:15.115Z,20.5913
2023-04-11T10:33:17.831Z,20.3990
2023-04-11T10:34:20.305Z,20.2785
2023-04-11T10:35:25.123Z,20.3513
2023-04-11T10:36:27.246Z,20.4295
2023-04-11T10:37:29.422Z,20.5060
2023-04-11T10:38:31.501Z,20.5248
2023-04-11T10:39:34.461Z,20.5452
2023-04-11T13:22:13.214Z,20.8967
2023-04-11T13:23:09.929Z,20.7800
2023-04-11T13:24:10.621Z,20.8043
2023-04-11T13:25:13.527Z,20.8293
2023-04-11T13:26:15.727Z,20.8520
2023-04-11T13:27:18.261Z,20.8709
2023-04-11T13:28:20.846Z,20.8769
2023-04-11T13:29:23.437Z,20.7363
2023-04-11T13:30:26.042Z,20.5280
2023-04-11T13:31:28.685Z,20.3309
2023-04-11T13:32:31.276Z,20.2906
2023-04-11T13:33:33.853Z,20.3742
2023-04-11T13:34:36.467Z,20.4787
2023-04-11T13:35:38.991Z,20.5734
2023-04-11T13:36:41.583Z,20.6498
2023-04-11T13:37:44.107Z,20.7062
2023-04-11T13:38:46.745Z,20.7568
2023-04-11T13:39:49.301Z,20.7922
2023-04-11T13:40:51.938Z,20.8175
2023-04-11T13:41:54.484Z,20.8370
2023-04-11T13:42:57.236Z,20.8576
2023-04-11T13:43:59.652Z,20.8671
2023-04-11T13:45:02.359Z,20.8738
2023-04-11T13:46:04.901Z,20.8806
2023-04-11T13:47:07.373Z,20.8872
2023-04-11T13:48:10.029Z,20.8930
2023-04-11T13:49:12.584Z,20.8953
2023-04-11T13:50:15.126Z,20.8995
2023-04-11T13:51:17.675Z,20.9052
2023-04-11T13:52:20.295Z,20.9119
2023-04-11T13:53:22.903Z,20.9149
2023-04-11T13:54:25.415Z,20.9194
2023-04-11T13:55:28.030Z,20.9243
2023-04-11T13:56:30.611Z,20.9318
2023-04-11T13:57:33.213Z,20.9404
2023-04-11T13:58:35.738Z,20.9508
2023-04-11T13:59:38.394Z,20.9596
2023-04-11T14:00:40.897Z,20.9692
2023-04-11T14:01:43.611Z,20.9780
2023-04-11T14:02:46.220Z,20.9865
2023-04-11T14:03:48.793Z,20.9927
2023-04-11T14:04:51.321Z,20.9974
2023-04-11T14:05:53.797Z,21.0036
2023-04-11T14:06:56.504Z,21.0058
2023-04-11T14:07:59.093Z,21.0038
2023-04-11T14:09:01.620Z,21.0052
2023-04-11T14:10:04.241Z,21.0077
2023-04-11T14:11:06.863Z,21.0108
2023-04-11T14:12:09.328Z,21.0040
2023-04-11T14:13:11.917Z,20.9958
2023-04-11T14:14:14.487Z,20.9981
2023-04-11T14:15:17.104Z,21.0025
2023-04-11T14:16:19.718Z,21.0012
2023-04-11T14:17:22.314Z,20.9996
2023-04-11T14:18:24.804Z,20.9955
2023-04-11T14:19:27.402Z,20.9946
2023-04-11T14:20:30.048Z,20.9932
2023-04-11T14:21:32.585Z,20.9933
2023-04-11T14:22:35.253Z,20.9948
2023-04-11T14:23:37.723Z,20.9986
2023-04-11T14:24:40.631Z,21.0009
2023-04-11T14:25:42.876Z,21.0001
2023-04-11T14:26:45.484Z,21.0021
2023-04-11T14:27:48.056Z,21.0047
2023-04-11T14:28:50.592Z,21.0052
2023-04-11T14:29:53.192Z,21.0059
2023-04-11T14:30:56.025Z,21.0084
2023-04-11T14:31:58.429Z,21.0083
2023-04-11T14:33:00.928Z,21.0100
2023-04-11T14:34:03.594Z,21.0101
2023-04-11T14:35:06.150Z,21.0118
2023-04-11T14:36:08.681Z,21.0101
2023-04-11T14:37:11.283Z,21.0182
2023-04-11T14:38:13.865Z,21.0285
2023-04-11T14:39:16.629Z,21.0385
2023-04-11T14:40:19.096Z,21.0441
2023-04-11T14:41:21.640Z,21.0289
2023-04-11T14:42:24.251Z,20.9978
2023-04-11T14:43:26.853Z,20.9721
2023-04-11T14:44:29.822Z,20.9375
2023-04-11T14:45:33.652Z,20.8935
2023-04-11T14:46:34.622Z,20.8690
2023-04-11T14:47:37.190Z,20.8429
2023-04-11T14:48:39.726Z,20.8428
2023-04-11T14:49:42.296Z,20.8749
2023-04-11T14:50:44.878Z,20.9088
2023-04-11T14:51:47.485Z,20.9184
2023-04-11T14:52:50.025Z,20.8801
2023-04-11T14:53:52.628Z,20.8341
2023-04-11T14:54:55.221Z,20.8526
2023-04-11T14:55:57.794Z,20.9026
2023-04-11T14:57:00.373Z,20.9397
2023-04-11T14:58:02.992Z,20.9812
2023-04-11T14:59:05.491Z,21.0132
2023-04-11T15:00:08.155Z,21.0578
2023-04-11T15:01:10.711Z,21.1128
2023-04-11T15:02:13.334Z,21.1599
2023-04-11T15:03:16.164Z,21.1999
2023-04-11T15:04:18.479Z,21.2334
2023-04-11T15:05:21.023Z,21.2633
2023-04-11T15:06:24.605Z,21.2640
2023-04-11T15:07:26.105Z,21.2875
2023-04-11T15:08:28.701Z,21.3134
2023-04-11T15:09:31.299Z,21.3377
2023-04-11T15:10:33.856Z,21.3558
2023-04-11T15:11:36.617Z,21.3738
2023-04-11T15:12:39.147Z,21.2610
2023-04-11T15:13:42.910Z,20.6604
2023-04-11T15:14:44.368Z,19.8090
2023-04-11T15:15:46.925Z,19.2099
2023-04-11T15:16:49.366Z,18.8527
2023-04-11T15:17:52.047Z,18.7059
2023-04-11T15:18:54.486Z,18.5858
2023-04-11T15:19:57.081Z,18.7375
2023-04-11T15:20:59.861Z,19.1416
2023-04-11T15:22:02.306Z,19.5093
2023-04-11T15:23:04.867Z,19.8094
2023-04-11T15:24:07.504Z,20.0346
2023-04-11T15:25:10.042Z,20.1964
2023-04-11T15:26:12.607Z,20.3528
2023-04-11T15:27:15.168Z,20.4933
2023-04-11T15:28:18.586Z,20.6084
2023-04-11T15:29:20.393Z,20.6946
2023-04-11T15:30:22.885Z,20.7665
2023-04-11T15:31:25.593Z,20.8170
2023-04-11T15:32:28.113Z,20.8576
2023-04-11T15:33:30.651Z,20.8858
2023-04-11T15:34:33.205Z,20.9118
2023-04-11T15:35:35.813Z,20.9337
2023-04-11T15:36:38.380Z,20.9515
2023-04-11T15:37:41.216Z,20.9708
2023-04-11T15:38:43.555Z,20.9950
2023-04-11T15:39:46.100Z,21.0188
2023-04-11T15:40:48.738Z,21.0328
2023-04-11T15:41:51.325Z,21.0479
2023-04-11T15:42:53.920Z,21.0564
2023-04-11T15:43:56.591Z,21.0619
2023-04-11T15:44:59.034Z,21.0663
2023-04-11T15:46:01.644Z,21.0723
2023-04-11T15:47:04.326Z,21.0772
2023-04-11T15:48:06.939Z,21.0681
2023-04-11T15:49:09.369Z,21.0371
2023-04-11T15:50:11.992Z,21.0469
2023-04-11T15:51:14.527Z,21.0633
2023-04-11T15:52:17.156Z,21.0693
2023-04-11T15:53:19.720Z,21.0704
2023-04-11T15:54:22.331Z,21.0731
2023-04-11T15:55:24.909Z,21.0737
2023-04-11T15:56:27.443Z,21.0749
2023-04-11T15:57:30.041Z,21.0848
2023-04-11T15:58:33.858Z,21.0711
2023-04-11T15:59:35.260Z,21.0792
2023-04-11T16:00:38.027Z,21.0882
2023-04-11T16:01:40.602Z,21.1005
2023-04-11T16:02:43.269Z,21.0983
2023-04-11T16:03:45.759Z,21.1009
2023-04-11T16:04:49.196Z,21.1086
2023-04-11T16:05:50.794Z,21.1136
2023-04-11T16:06:53.353Z,21.1181
2023-04-11T16:07:55.910Z,21.1179
2023-04-11T16:08:58.458Z,21.1174
2023-04-11T16:10:01.102Z,21.1210
2023-04-11T16:11:03.690Z,21.1245
2023-04-11T16:12:06.238Z,21.1239
2023-04-11T16:13:09.107Z,21.1133
2023-04-11T16:14:12.198Z,21.0684
2023-04-11T16:24:33.203Z,21.0448
2023-04-11T16:24:33.203Z,20.9338
2023-04-11T16:24:33.203Z,20.9963
2023-04-11T16:25:25.353Z,20.7122
2023-04-11T16:26:27.957Z,20.7302
2023-04-11T16:27:30.487Z,20.7667
2023-04-11T16:28:33.213Z,20.7803
2023-04-11T16:29:35.699Z,20.7897
2023-04-11T16:30:38.242Z,20.7904
2023-04-11T16:31:40.839Z,20.8045
2023-04-11T16:32:43.468Z,20.8472
2023-04-11T16:33:46.052Z,20.8706
2023-04-11T16:34:48.603Z,20.8830
2023-04-11T16:35:51.190Z,20.9084
2023-04-11T16:36:53.794Z,20.9089
2023-04-11T16:37:56.361Z,20.9233
2023-04-11T16:38:58.917Z,20.9562
2023-04-11T16:40:01.489Z,20.9897
2023-04-11T16:41:04.083Z,21.0128
2023-04-11T16:42:06.713Z,21.0315
2023-04-11T16:43:09.385Z,21.0503
2023-04-11T16:44:11.917Z,21.0603
2023-04-11T16:45:14.466Z,21.0672
2023-04-11T16:46:17.441Z,21.0721
2023-04-11T16:47:19.741Z,21.0798
2023-04-11T16:48:22.711Z,21.0845
2023-04-11T16:49:24.817Z,21.0925
2023-04-11T16:50:27.381Z,21.0947
